createdAt,value
2023-03-10T00:00:06.041Z,54.47
2023-03-10T00:05:10.545Z,56.83
2023-03-10T00:10:16.833Z,49.60
2023-03-10T00:15:19.192Z,48.93
2023-03-10T00:20:23.071Z,48.73
2023-03-10T00:25:25.330Z,55.07
2023-03-10T00:30:30.677Z,51.97
2023-03-10T00:35:36.665Z,54.37
2023-03-10T00:40:47.595Z,57.97
2023-03-10T00:45:49.988Z,52.37
2023-03-10T00:50:52.417Z,55.77
2023-03-10T00:56:04.140Z,56.20
2023-03-10T01:01:14.663Z,57.60
2023-03-10T01:06:17.194Z,56.30
2023-03-10T01:11:22.828Z,55.47
2023-03-10T01:16:26.121Z,57.27
2023-03-10T01:21:32.603Z,56.83
2023-03-10T01:26:35.373Z,64.90
2023-03-10T01:31:37.896Z,81.93
2023-03-10T01:36:41.986Z,64.37
2023-03-10T01:41:44.261Z,59.80
2023-03-10T01:46:54.722Z,59.70
2023-03-10T01:52:08.510Z,55.03
2023-03-10T01:57:13.737Z,55.80
2023-03-10T02:02:16.652Z,57.17
2023-03-10T02:07:22.409Z,60.33
2023-03-10T02:12:24.800Z,61.37
2023-03-10T02:17:28.829Z,62.97
2023-03-10T02:22:32.726Z,54.90
2023-03-10T02:27:37.181Z,52.83
2023-03-10T02:32:47.561Z,50.60
2023-03-10T02:37:53.301Z,46.00
2023-03-10T02:42:56.266Z,51.10
2023-03-10T02:47:58.777Z,44.90
2023-03-10T02:53:11.837Z,46.27
2023-03-10T02:58:15.883Z,45.43
2023-03-10T03:03:20.403Z,44.03
2023-03-10T03:08:23.305Z,42.23
2023-03-10T03:13:25.984Z,45.63
2023-03-10T03:18:28.975Z,42.67
2023-03-10T03:23:31.442Z,41.80
2023-03-10T03:28:33.916Z,40.47
2023-03-10T03:33:36.247Z,42.53
2023-03-10T03:38:38.802Z,48.80
2023-03-10T03:43:41.285Z,45.83
2023-03-10T03:48:43.651Z,41.10
2023-03-10T03:53:46.094Z,53.13
2023-03-10T03:58:48.418Z,48.47
2023-03-10T04:03:51.840Z,50.17
2023-03-10T04:08:54.281Z,48.97
2023-03-10T04:13:59.068Z,51.07
2023-03-10T04:19:02.426Z,54.60
2023-03-10T04:24:05.894Z,61.60
2023-03-10T04:29:09.882Z,61.87
2023-03-10T04:34:14.772Z,53.17
2023-03-10T04:39:17.119Z,54.83
2023-03-10T04:44:30.428Z,52.87
2023-03-10T04:49:34.680Z,56.20
2023-03-10T04:54:38.277Z,54.87
2023-03-10T04:59:40.612Z,51.73
2023-03-10T05:04:43.207Z,61.60
2023-03-10T05:09:46.207Z,72.90
2023-03-10T05:14:48.622Z,65.07
2023-03-10T05:19:50.957Z,65.10
2023-03-10T05:24:53.763Z,75.60
2023-03-10T05:29:56.154Z,111.53
2023-03-10T05:35:01.791Z,76.20
2023-03-10T05:40:07.591Z,124.50
2023-03-10T05:45:11.102Z,119.17
2023-03-10T05:50:14.746Z,80.27
2023-03-10T05:55:19.204Z,79.10
2023-03-10T06:00:22.714Z,81.23
2023-03-10T06:05:33.644Z,86.13
2023-03-10T06:10:36.016Z,104.37
2023-03-10T06:15:38.259Z,84.37
2023-03-10T06:20:40.537Z,92.33
2023-03-10T06:25:43.124Z,83.73
2023-03-10T06:30:45.368Z,87.33
2023-03-10T06:35:47.633Z,79.37
2023-03-10T06:40:50.422Z,93.10
2023-03-10T06:45:52.685Z,80.70
2023-03-10T06:50:55.241Z,71.43
2023-03-10T06:56:02.728Z,79.07
2023-03-10T07:01:06.313Z,103.70
2023-03-10T07:06:08.601Z,79.53
2023-03-10T07:11:11.071Z,114.03
2023-03-10T07:16:13.432Z,168.87
2023-03-10T07:21:20.494Z,122.43
2023-03-10T07:26:22.786Z,181.53
2023-03-10T07:31:25.585Z,231.90
2023-03-10T07:36:29.162Z,147.77
2023-03-10T07:41:31.435Z,181.23
2023-03-10T07:46:33.749Z,200.77
2023-03-10T07:51:36.054Z,182.93
2023-03-10T07:56:38.286Z,391.13
2023-03-10T08:01:40.565Z,118.43
2023-03-10T08:06:42.810Z,132.47
2023-03-10T08:11:45.019Z,199.30
2023-03-10T08:16:47.234Z,98.80
2023-03-10T08:21:49.689Z,89.57
2023-03-10T08:26:54.419Z,87.23
2023-03-10T08:31:57.870Z,69.47
2023-03-10T08:37:00.949Z,59.50
2023-03-10T08:42:03.400Z,52.83
2023-03-10T08:47:05.894Z,32.73
2023-03-10T08:52:09.238Z,31.70
2023-03-10T08:57:11.498Z,35.20
2023-03-10T09:02:15.282Z,17.97
2023-03-10T09:07:17.682Z,34.33
2023-03-10T09:12:19.941Z,306.20
2023-03-10T09:17:22.215Z,16.33
2023-03-10T09:22:24.521Z,28.77
2023-03-10T09:27:26.764Z,19.37
2023-03-10T09:32:29.047Z,24.90
2023-03-10T09:37:32.351Z,19.53
2023-03-10T09:43:09.639Z,10.70
2023-03-10T09:48:26.501Z,64.23
2023-03-10T09:53:55.122Z,63.60
2023-03-10T09:59:16.957Z,21.40
2023-03-10T10:04:35.345Z,23.37
2023-03-10T10:09:47.270Z,18.00
2023-03-10T10:14:57.929Z,40.90
2023-03-10T10:20:00.211Z,21.20
2023-03-10T10:25:08.752Z,23.67
2023-03-10T10:30:38.051Z,10.43
2023-03-10T10:35:59.085Z,25.83
2023-03-10T10:41:07.725Z,47.23
2023-03-10T10:46:12.266Z,9.50
2023-03-10T10:51:29.163Z,9.50
2023-03-10T10:56:31.933Z,18.47
2023-03-10T11:01:57.483Z,10.17
2023-03-10T11:07:32.348Z,11.40
2023-03-10T11:12:50.093Z,10.60
2023-03-10T11:18:03.106Z,6.43
2023-03-10T11:23:29.565Z,4.70
2023-03-10T11:28:42.796Z,9.23
2023-03-10T11:34:08.825Z,12.20
2023-03-10T11:39:37.881Z,5.03
2023-03-10T11:44:57.682Z,9.83
2023-03-10T11:50:17.942Z,13.80
2023-03-10T11:55:21.602Z,5.37
2023-03-10T12:00:34.544Z,5.00
2023-03-10T12:05:45.699Z,8.73
2023-03-10T12:10:49.881Z,9.90
2023-03-10T12:15:59.662Z,4.07
2023-03-10T12:21:23.433Z,13.17
2023-03-10T12:26:59.057Z,20.57
2023-03-10T12:32:01.596Z,12.57
2023-03-10T12:37:12.431Z,11.83
2023-03-10T12:42:35.220Z,12.00
2023-03-10T12:48:01.604Z,19.77
2023-03-10T12:53:32.761Z,6.13
2023-03-10T12:58:37.196Z,5.33
2023-03-10T13:03:47.310Z,14.37
2023-03-10T13:09:01.834Z,12.73
2023-03-10T13:14:12.719Z,7.57
2023-03-10T13:19:20.933Z,6.07
2023-03-10T13:24:36.287Z,6.87
2023-03-10T13:29:39.302Z,4.90
2023-03-10T13:34:41.577Z,5.23
2023-03-10T13:39:43.844Z,6.57
2023-03-10T13:44:47.611Z,10.83
2023-03-10T13:49:58.565Z,26.90
2023-03-10T13:55:15.629Z,5.47
2023-03-10T14:00:21.787Z,15.33
2023-03-10T14:05:42.327Z,6.97
2023-03-10T14:10:44.688Z,9.07
2023-03-10T14:15:54.672Z,20.07
2023-03-10T14:20:57.114Z,34.10
2023-03-10T14:25:59.651Z,92.90
2023-03-10T14:31:02.763Z,9.00
2023-03-10T14:36:10.770Z,8.80
2023-03-10T14:41:14.151Z,8.73
2023-03-10T14:46:16.912Z,23.53
2023-03-10T14:51:34.421Z,29.60
2023-03-10T14:56:38.307Z,13.70
2023-03-10T15:01:41.606Z,8.00
2023-03-10T15:06:46.281Z,2.90
2023-03-10T15:11:48.779Z,25.40
2023-03-10T15:16:51.276Z,48.10
2023-03-10T15:21:54.225Z,49.67
2023-03-10T15:26:56.647Z,55.70
2023-03-10T15:31:58.994Z,51.80
2023-03-10T15:37:01.424Z,118.40
2023-03-10T15:42:03.845Z,37.50
2023-03-10T15:47:06.365Z,43.97
2023-03-10T15:52:08.815Z,58.67
2023-03-10T15:57:11.286Z,94.43
2023-03-10T16:02:15.342Z,40.90
2023-03-10T16:07:17.738Z,40.87
2023-03-10T16:12:22.391Z,86.77
2023-03-10T16:17:24.853Z,80.77
2023-03-10T16:22:27.169Z,56.23
2023-03-10T16:27:29.519Z,32.43
2023-03-10T16:32:32.095Z,78.23
2023-03-10T16:37:34.438Z,36.73
2023-03-10T16:42:36.872Z,58.53
2023-03-10T16:47:39.286Z,27.10
2023-03-10T16:52:42.705Z,19.90
2023-03-10T16:57:45.965Z,24.07
2023-03-10T17:02:48.717Z,22.57
2023-03-10T17:07:55.907Z,43.83
2023-03-10T17:12:58.517Z,36.57
2023-03-10T17:18:00.890Z,38.77
2023-03-10T17:23:03.253Z,26.27
2023-03-10T17:28:05.806Z,31.97
2023-03-10T17:33:08.185Z,31.20
2023-03-10T17:38:10.511Z,26.07
2023-03-10T17:43:29.680Z,21.97
2023-03-10T17:48:35.938Z,107.43
2023-03-10T17:53:38.443Z,433.80
2023-03-10T17:58:41.208Z,177.57
2023-03-10T18:03:45.396Z,89.57
2023-03-10T18:08:49.847Z,190.43
2023-03-10T18:13:52.245Z,181.27
2023-03-10T18:18:56.019Z,74.63
2023-03-10T18:23:58.600Z,75.10
2023-03-10T18:29:01.065Z,46.10
2023-03-10T18:34:04.086Z,56.43
2023-03-10T18:39:07.769Z,33.20
2023-03-10T18:44:10.108Z,38.07
2023-03-10T18:49:12.476Z,42.63
2023-03-10T18:54:14.833Z,43.67
2023-03-10T18:59:18.981Z,43.50
2023-03-10T19:04:21.237Z,42.77
2023-03-10T19:09:24.408Z,50.03
2023-03-10T19:14:26.625Z,47.13
2023-03-10T19:19:28.858Z,49.40
2023-03-10T19:24:31.170Z,112.77
2023-03-10T19:29:33.422Z,105.20
2023-03-10T19:34:35.906Z,110.50
2023-03-10T19:39:38.233Z,80.67
2023-03-10T19:44:40.516Z,83.77
2023-03-10T19:49:43.284Z,95.40
2023-03-10T19:54:45.499Z,82.27
2023-03-10T19:59:47.719Z,82.90
2023-03-10T20:04:50.550Z,81.90
2023-03-10T20:09:52.762Z,186.60
2023-03-10T20:14:58.624Z,156.83
2023-03-10T20:20:01.024Z,123.73
2023-03-10T20:25:04.339Z,92.37
2023-03-10T20:30:16.484Z,68.17
2023-03-10T20:35:19.229Z,66.17
2023-03-10T20:40:24.124Z,65.70
2023-03-10T20:45:26.520Z,78.97
2023-03-10T20:50:28.773Z,97.17
2023-03-10T20:55:32.045Z,101.20
2023-03-10T21:00:34.277Z,80.23
2023-03-10T21:05:36.518Z,80.43
2023-03-10T21:10:38.863Z,103.57
2023-03-10T21:15:41.335Z,105.73
2023-03-10T21:20:43.658Z,109.93
2023-03-10T21:25:45.982Z,416.77
2023-03-10T21:30:48.257Z,320.53
2023-03-10T21:35:50.537Z,298.83
2023-03-10T21:40:53.180Z,220.97
2023-03-10T21:45:55.529Z,264.00
2023-03-10T21:50:57.802Z,230.93
2023-03-10T21:56:00.772Z,162.90
2023-03-10T22:01:07.098Z,502.73
2023-03-10T22:06:09.917Z,211.37
2023-03-10T22:11:12.791Z,106.07
2023-03-10T22:16:17.199Z,68.60
2023-03-10T22:21:20.469Z,54.10
2023-03-10T22:26:22.700Z,51.67
2023-03-10T22:31:24.973Z,49.73
2023-03-10T22:36:27.285Z,50.93
2023-03-10T22:41:29.865Z,44.50
2023-03-10T22:46:32.467Z,36.43
2023-03-10T22:51:34.845Z,30.73
2023-03-10T22:56:37.131Z,34.03
2023-03-10T23:01:39.612Z,32.93
2023-03-10T23:06:41.850Z,29.23
2023-03-10T23:11:45.326Z,27.80
2023-03-10T23:16:47.575Z,23.30
2023-03-10T23:21:49.901Z,25.30
2023-03-10T23:26:52.123Z,24.70
2023-03-10T23:31:54.688Z,17.60
2023-03-10T23:36:58.246Z,20.87
2023-03-10T23:42:00.606Z,25.57
2023-03-10T23:47:02.875Z,28.03
2023-03-10T23:52:05.110Z,34.97
2023-03-10T23:57:07.772Z,30.67
